createdAt,value
2022-10-22T00:01:20.672Z,6.33
2022-10-22T00:03:47.518Z,7.40
2022-10-22T00:06:14.289Z,8.23
2022-10-22T00:09:20.225Z,7.33
2022-10-22T00:11:47.162Z,7.80
2022-10-22T00:14:14.022Z,7.00
2022-10-22T00:16:40.863Z,8.00
2022-10-22T00:19:09.360Z,7.17
2022-10-22T00:21:36.433Z,8.67
2022-10-22T00:24:03.242Z,8.00
2022-10-22T00:26:30.074Z,7.20
2022-10-22T00:28:56.950Z,7.20
2022-10-22T00:31:23.707Z,7.80
2022-10-22T00:33:50.886Z,7.87
2022-10-22T00:36:17.625Z,7.70
2022-10-22T00:38:44.657Z,7.50
2022-10-22T00:41:11.443Z,7.27
2022-10-22T00:43:56.631Z,7.33
2022-10-22T00:46:23.633Z,8.20
2022-10-22T00:48:50.724Z,7.63
2022-10-22T00:51:17.783Z,8.00
2022-10-22T00:53:46.803Z,7.93
2022-10-22T00:56:14.202Z,7.63
2022-10-22T00:58:43.920Z,7.70
2022-10-22T01:01:14.258Z,7.83
2022-10-22T01:03:41.163Z,7.30
2022-10-22T01:06:08.202Z,6.77
2022-10-22T01:08:35.165Z,7.90
2022-10-22T01:11:04.755Z,7.83
2022-10-22T01:13:50.219Z,7.97
2022-10-22T01:16:23.076Z,7.50
2022-10-22T01:19:11.566Z,7.80
2022-10-22T01:21:42.663Z,7.33
2022-10-22T01:24:20.509Z,7.50
2022-10-22T01:27:06.220Z,8.67
2022-10-22T01:29:42.070Z,7.73
2022-10-22T01:32:14.164Z,8.20
2022-10-22T01:34:43.506Z,7.60
2022-10-22T01:37:12.467Z,8.03
2022-10-22T01:39:40.664Z,7.73
2022-10-22T01:42:07.514Z,7.40
2022-10-22T01:47:26.455Z,7.80
2022-10-22T01:49:59.348Z,7.97
2022-10-22T01:52:46.083Z,7.53
2022-10-22T01:55:22.703Z,8.10
2022-10-22T01:57:53.875Z,8.07
2022-10-22T02:00:20.942Z,7.57
2022-10-22T02:03:02.372Z,8.60
2022-10-22T02:05:33.298Z,8.07
2022-10-22T02:08:04.693Z,6.83
2022-10-22T02:10:31.915Z,8.07
2022-10-22T02:13:00.178Z,8.20
2022-10-22T02:15:27.824Z,7.60
2022-10-22T02:17:56.245Z,7.57
2022-10-22T02:20:26.191Z,8.07
2022-10-22T02:22:53.307Z,7.07
2022-10-22T02:25:21.827Z,7.83
2022-10-22T02:27:54.949Z,7.60
2022-10-22T02:30:23.563Z,7.90
2022-10-22T02:32:50.398Z,7.57
2022-10-22T02:35:19.642Z,7.97
2022-10-22T02:37:47.175Z,8.27
2022-10-22T02:40:14.069Z,9.40
2022-10-22T02:42:42.523Z,8.63
2022-10-22T02:45:09.803Z,8.53
2022-10-22T02:47:36.703Z,9.00
2022-10-22T02:50:06.529Z,8.43
2022-10-22T02:52:36.323Z,7.87
2022-10-22T02:55:03.398Z,7.80
2022-10-22T02:57:30.220Z,7.57
2022-10-22T02:59:56.987Z,7.90
2022-10-22T03:02:24.053Z,7.97
2022-10-22T03:04:50.849Z,8.10
2022-10-22T03:07:17.749Z,8.03
2022-10-22T03:09:44.555Z,8.27
2022-10-22T03:12:11.427Z,8.30
2022-10-22T03:14:38.163Z,8.47
2022-10-22T03:17:05.013Z,8.67
2022-10-22T03:19:31.948Z,8.47
2022-10-22T03:22:03.309Z,8.23
2022-10-22T03:24:38.468Z,8.63
2022-10-22T03:27:05.243Z,8.53
2022-10-22T03:29:33.412Z,9.37
2022-10-22T03:32:00.247Z,9.43
2022-10-22T03:34:27.253Z,8.80
2022-10-22T03:36:54.633Z,8.70
2022-10-22T03:39:21.900Z,7.63
2022-10-22T03:41:49.526Z,8.27
2022-10-22T03:44:17.022Z,7.63
2022-10-22T03:46:44.066Z,7.83
2022-10-22T03:49:10.933Z,8.77
2022-10-22T03:51:37.758Z,9.03
2022-10-22T03:54:04.719Z,8.33
2022-10-22T03:56:31.657Z,8.73
2022-10-22T03:58:59.007Z,8.77
2022-10-22T04:01:26.468Z,8.93
2022-10-22T04:03:53.547Z,8.40
2022-10-22T04:06:20.334Z,7.57
2022-10-22T04:08:47.202Z,8.20
2022-10-22T04:11:14.538Z,7.43
2022-10-22T04:13:41.460Z,8.30
2022-10-22T04:16:10.997Z,7.67
2022-10-22T04:18:38.092Z,8.67
2022-10-22T04:21:05.361Z,9.10
2022-10-22T04:23:32.225Z,8.70
2022-10-22T04:25:59.696Z,8.17
2022-10-22T04:28:26.541Z,8.47
2022-10-22T04:30:53.531Z,8.27
2022-10-22T04:33:20.305Z,8.50
2022-10-22T04:35:47.476Z,7.93
2022-10-22T04:38:14.398Z,7.83
2022-10-22T04:40:41.311Z,8.17
2022-10-22T04:43:08.163Z,8.27
2022-10-22T04:45:35.665Z,8.60
2022-10-22T04:48:02.720Z,8.73
2022-10-22T04:50:30.139Z,7.47
2022-10-22T04:52:56.968Z,7.80
2022-10-22T04:55:23.873Z,7.70
2022-10-22T04:57:50.735Z,8.97
2022-10-22T05:00:17.642Z,9.20
2022-10-22T05:02:48.839Z,8.37
2022-10-22T05:05:15.665Z,7.93
2022-10-22T05:07:42.767Z,7.73
2022-10-22T05:10:10.082Z,7.60
2022-10-22T05:12:36.991Z,7.90
2022-10-22T05:15:03.889Z,8.10
2022-10-22T05:17:31.133Z,7.80
2022-10-22T05:19:57.854Z,8.50
2022-10-22T05:22:24.703Z,8.27
2022-10-22T05:24:51.488Z,8.30
2022-10-22T05:29:46.060Z,8.30
2022-10-22T05:32:13.175Z,7.97
2022-10-22T05:34:39.962Z,8.40
2022-10-22T05:37:06.924Z,8.00
2022-10-22T05:39:37.410Z,8.53
2022-10-22T05:42:04.215Z,7.90
2022-10-22T05:44:30.969Z,9.47
2022-10-22T05:46:57.793Z,8.47
2022-10-22T05:49:24.735Z,7.83
2022-10-22T05:51:51.560Z,8.47
2022-10-22T05:54:19.983Z,8.90
2022-10-22T05:56:46.794Z,9.10
2022-10-22T05:59:13.586Z,9.37
2022-10-22T06:01:40.745Z,9.37
2022-10-22T06:04:08.450Z,8.13
2022-10-22T06:06:40.124Z,9.33
2022-10-22T06:09:08.108Z,9.07
2022-10-22T06:11:35.431Z,8.50
2022-10-22T06:14:02.678Z,8.60
2022-10-22T06:16:30.245Z,9.97
2022-10-22T06:18:58.630Z,8.30
2022-10-22T06:21:25.416Z,7.77
2022-10-22T06:23:52.200Z,9.83
2022-10-22T06:26:19.149Z,8.97
2022-10-22T06:28:46.066Z,9.13
2022-10-22T06:31:13.125Z,9.30
2022-10-22T06:33:42.619Z,9.23
2022-10-22T06:36:10.937Z,9.50
2022-10-22T06:38:38.258Z,10.43
2022-10-22T06:41:09.687Z,9.33
2022-10-22T06:43:36.682Z,9.77
2022-10-22T06:46:04.774Z,10.17
2022-10-22T06:48:31.633Z,9.40
2022-10-22T06:51:02.070Z,8.77
2022-10-22T06:53:29.079Z,8.93
2022-10-22T06:55:55.900Z,8.80
2022-10-22T06:58:22.766Z,9.30
2022-10-22T07:00:49.758Z,8.57
2022-10-22T07:03:16.492Z,9.17
2022-10-22T07:05:43.334Z,8.97
2022-10-22T07:08:10.055Z,8.30
2022-10-22T07:10:36.871Z,9.33
2022-10-22T07:13:03.858Z,8.17
2022-10-22T07:15:30.649Z,8.77
2022-10-22T07:17:57.581Z,8.73
2022-10-22T07:20:24.527Z,8.80
2022-10-22T07:22:51.463Z,9.33
2022-10-22T07:25:18.202Z,7.33
2022-10-22T07:27:45.160Z,8.60
2022-10-22T07:30:12.081Z,7.53
2022-10-22T07:32:38.831Z,8.23
2022-10-22T07:35:05.893Z,8.67
2022-10-22T07:37:32.656Z,8.30
2022-10-22T07:40:02.997Z,7.83
2022-10-22T07:42:31.033Z,8.23
2022-10-22T07:44:57.761Z,8.30
2022-10-22T07:47:24.664Z,9.07
2022-10-22T07:49:51.424Z,8.03
2022-10-22T07:52:19.326Z,7.70
2022-10-22T07:54:46.390Z,8.43
2022-10-22T07:57:13.115Z,7.93
2022-10-22T07:59:40.025Z,8.07
2022-10-22T08:02:07.264Z,7.63
2022-10-22T08:04:34.234Z,8.63
2022-10-22T08:07:01.023Z,8.80
2022-10-22T08:09:27.843Z,8.80
2022-10-22T08:11:54.941Z,8.23
2022-10-22T08:14:22.107Z,8.37
2022-10-22T08:16:49.000Z,8.73
2022-10-22T08:19:19.005Z,8.40
2022-10-22T08:21:46.373Z,7.93
2022-10-22T08:24:13.759Z,7.70
2022-10-22T08:26:40.920Z,7.67
2022-10-22T08:29:08.199Z,7.87
2022-10-22T08:31:35.147Z,8.60
2022-10-22T08:34:01.994Z,8.33
2022-10-22T08:36:28.830Z,8.43
2022-10-22T08:38:55.676Z,8.60
2022-10-22T08:41:23.514Z,8.50
2022-10-22T08:43:50.289Z,7.73
2022-10-22T08:46:32.188Z,7.33
2022-10-22T08:49:00.741Z,8.63
2022-10-22T08:51:30.458Z,7.77
2022-10-22T08:54:00.325Z,8.60
2022-10-22T08:56:27.090Z,7.20
2022-10-22T08:58:57.472Z,7.87
2022-10-22T09:01:31.740Z,8.47
2022-10-22T09:04:04.788Z,8.10
2022-10-22T09:06:32.959Z,7.80
2022-10-22T09:09:00.646Z,8.40
2022-10-22T09:11:27.583Z,8.57
2022-10-22T09:13:55.457Z,7.83
2022-10-22T09:16:26.474Z,7.87
2022-10-22T09:19:11.957Z,7.63
2022-10-22T09:22:02.056Z,9.07
2022-10-22T09:24:47.850Z,8.20
2022-10-22T09:27:16.300Z,8.07
2022-10-22T09:29:43.907Z,8.47
2022-10-22T09:32:10.749Z,8.83
2022-10-22T09:34:37.853Z,9.53
2022-10-22T09:37:06.135Z,8.70
2022-10-22T09:39:34.530Z,9.10
2022-10-22T09:42:01.325Z,8.83
2022-10-22T09:44:28.417Z,9.53
2022-10-22T09:46:55.208Z,7.70
2022-10-22T09:49:23.462Z,8.30
2022-10-22T09:51:50.402Z,8.20
2022-10-22T09:54:19.263Z,9.03
2022-10-22T09:57:09.320Z,8.03
2022-10-22T09:59:41.488Z,8.60
2022-10-22T10:02:20.429Z,8.20
2022-10-22T10:04:55.447Z,9.63
2022-10-22T10:07:24.112Z,8.83
2022-10-22T10:09:52.077Z,11.13
2022-10-22T10:12:28.158Z,10.20
2022-10-22T10:15:03.881Z,8.83
2022-10-22T10:17:33.757Z,9.80
2022-10-22T10:20:15.785Z,8.40
2022-10-22T10:23:14.813Z,8.23
2022-10-22T10:25:59.648Z,8.87
2022-10-22T10:28:45.130Z,9.23
2022-10-22T10:31:28.532Z,8.50
2022-10-22T10:34:03.075Z,9.37
2022-10-22T10:36:38.815Z,10.53
2022-10-22T10:39:05.587Z,8.87
2022-10-22T10:41:47.668Z,8.80
2022-10-22T10:44:14.481Z,9.60
2022-10-22T10:46:41.334Z,9.47
2022-10-22T10:49:20.380Z,9.30
2022-10-22T10:51:53.523Z,9.70
2022-10-22T10:54:46.984Z,9.77
2022-10-22T10:57:13.760Z,10.70
2022-10-22T10:59:40.570Z,8.77
2022-10-22T11:02:22.628Z,9.00
2022-10-22T11:05:08.950Z,8.90
2022-10-22T11:07:39.417Z,9.57
2022-10-22T11:10:19.800Z,9.20
2022-10-22T11:12:50.678Z,8.50
2022-10-22T11:15:29.460Z,8.93
2022-10-22T11:18:16.568Z,9.00
2022-10-22T11:21:09.632Z,8.40
2022-10-22T11:23:40.901Z,9.10
2022-10-22T11:26:14.724Z,8.30
2022-10-22T11:28:43.981Z,9.87
2022-10-22T11:31:15.023Z,9.20
2022-10-22T11:33:57.316Z,10.60
2022-10-22T11:39:05.042Z,9.53
2022-10-22T11:41:33.045Z,10.13
2022-10-22T11:44:09.530Z,9.80
2022-10-22T11:46:56.933Z,9.63
2022-10-22T11:49:28.039Z,10.07
2022-10-22T11:52:15.025Z,9.83
2022-10-22T11:54:44.619Z,9.37
2022-10-22T11:57:40.888Z,9.50
2022-10-22T12:00:31.472Z,8.90
2022-10-22T12:03:17.146Z,10.53
2022-10-22T12:05:44.674Z,10.83
2022-10-22T12:08:22.653Z,9.87
2022-10-22T12:11:09.805Z,9.90
2022-10-22T12:13:58.705Z,11.27
2022-10-22T12:16:56.607Z,10.47
2022-10-22T12:19:24.154Z,11.03
2022-10-22T12:21:55.280Z,10.70
2022-10-22T12:24:23.421Z,13.40
2022-10-22T12:26:52.805Z,11.27
2022-10-22T12:29:23.018Z,15.33
2022-10-22T12:31:50.021Z,12.53
2022-10-22T12:34:21.451Z,12.43
2022-10-22T12:36:51.272Z,13.10
2022-10-22T12:39:19.224Z,12.73
2022-10-22T12:41:46.925Z,12.80
2022-10-22T12:44:15.101Z,11.40
2022-10-22T12:46:42.840Z,11.40
2022-10-22T12:49:19.221Z,11.67
2022-10-22T12:51:47.158Z,11.70
2022-10-22T12:54:22.164Z,12.33
2022-10-22T12:56:49.813Z,13.27
2022-10-22T12:59:21.698Z,13.97
2022-10-22T13:01:49.518Z,13.23
2022-10-22T13:04:31.545Z,14.03
2022-10-22T13:07:07.425Z,14.60
2022-10-22T13:09:41.879Z,14.83
2022-10-22T13:12:14.884Z,14.60
2022-10-22T13:14:42.795Z,15.13
2022-10-22T13:17:12.942Z,17.17
2022-10-22T13:19:45.943Z,16.90
2022-10-22T13:22:27.836Z,16.20
2022-10-22T13:27:28.650Z,16.80
2022-10-22T13:29:56.552Z,17.67
2022-10-22T13:32:33.861Z,16.13
2022-10-22T13:35:02.013Z,17.63
2022-10-22T13:37:29.781Z,16.77
2022-10-22T13:39:56.736Z,15.40
2022-10-22T13:42:23.606Z,17.60
2022-10-22T13:44:50.362Z,18.43
2022-10-22T13:47:23.195Z,16.60
2022-10-22T13:49:50.038Z,16.33
2022-10-22T13:52:22.808Z,16.60
2022-10-22T13:54:49.777Z,16.83
2022-10-22T13:57:16.528Z,16.33
2022-10-22T13:59:43.483Z,16.87
2022-10-22T14:02:12.491Z,16.37
2022-10-22T14:04:40.416Z,15.40
2022-10-22T14:07:14.961Z,15.50
2022-10-22T14:09:41.785Z,13.63
2022-10-22T14:12:13.077Z,15.03
2022-10-22T14:14:40.154Z,14.10
2022-10-22T14:17:09.283Z,14.30
2022-10-22T14:19:36.049Z,15.07
2022-10-22T14:22:02.912Z,15.17
2022-10-22T14:33:56.066Z,15.37
2022-10-22T14:36:22.839Z,14.70
2022-10-22T14:38:49.695Z,14.47
2022-10-22T14:41:23.517Z,14.93
2022-10-22T14:43:51.020Z,16.23
2022-10-22T14:46:18.268Z,15.20
2022-10-22T14:48:45.376Z,17.10
2022-10-22T14:51:13.791Z,16.53
2022-10-22T14:53:41.032Z,16.47
2022-10-22T14:56:09.358Z,16.77
2022-10-22T14:58:36.224Z,17.03
2022-10-22T15:01:03.255Z,17.30
2022-10-22T15:03:30.563Z,19.23
2022-10-22T15:05:58.051Z,16.50
2022-10-22T15:08:25.546Z,16.50
2022-10-22T15:11:02.534Z,17.73
2022-10-22T15:13:29.953Z,19.87
2022-10-22T15:15:57.423Z,17.77
2022-10-22T15:18:24.535Z,19.17
2022-10-22T15:21:01.502Z,20.23
2022-10-22T15:23:28.614Z,18.00
2022-10-22T15:25:56.033Z,68.70
2022-10-22T15:28:23.011Z,25.43
2022-10-22T15:30:53.618Z,18.70
2022-10-22T15:33:20.619Z,22.30
2022-10-22T15:35:47.686Z,19.43
2022-10-22T15:38:14.501Z,16.13
2022-10-22T15:40:41.309Z,18.53
2022-10-22T15:43:08.457Z,15.90
2022-10-22T15:45:35.527Z,18.17
2022-10-22T15:48:02.246Z,18.17
2022-10-22T15:50:29.108Z,16.13
2022-10-22T15:52:56.529Z,16.13
2022-10-22T15:55:23.464Z,17.50
2022-10-22T15:57:55.174Z,17.00
2022-10-22T16:00:22.958Z,16.83
2022-10-22T16:02:49.842Z,16.47
2022-10-22T16:05:16.599Z,14.93
2022-10-22T16:07:43.763Z,15.57
2022-10-22T16:10:12.978Z,17.47
2022-10-22T16:12:41.621Z,16.00
2022-10-22T16:15:09.378Z,16.13
2022-10-22T16:17:36.404Z,16.07
2022-10-22T16:20:03.299Z,18.37
2022-10-22T16:22:30.188Z,17.27
2022-10-22T16:30:26.924Z,18.27
2022-10-22T16:32:53.750Z,17.53
2022-10-22T16:35:20.495Z,16.53
2022-10-22T16:37:47.356Z,18.07
2022-10-22T16:40:14.350Z,18.70
2022-10-22T16:42:42.199Z,16.80
2022-10-22T16:45:09.290Z,25.00
2022-10-22T16:49:44.411Z,20.20
2022-10-22T16:52:11.254Z,20.70
2022-10-22T16:54:38.022Z,19.37
2022-10-22T16:57:04.788Z,20.50
2022-10-22T16:59:31.692Z,20.57
2022-10-22T17:01:58.501Z,19.20
2022-10-22T17:04:25.420Z,20.30
2022-10-22T17:06:52.275Z,20.83
2022-10-22T17:09:19.219Z,23.43
2022-10-22T17:11:46.532Z,23.87
2022-10-22T17:14:13.514Z,22.77
2022-10-22T17:16:40.319Z,21.67
2022-10-22T17:19:07.122Z,22.70
2022-10-22T17:21:34.310Z,23.90
2022-10-22T17:24:01.136Z,23.13
2022-10-22T17:26:28.546Z,27.37
2022-10-22T17:28:55.446Z,23.13
2022-10-22T17:31:23.571Z,28.77
2022-10-22T17:33:51.293Z,26.87
2022-10-22T17:36:18.909Z,25.37
2022-10-22T17:38:48.000Z,26.93
2022-10-22T17:41:22.299Z,28.00
2022-10-22T17:43:49.437Z,29.33
2022-10-22T17:46:18.176Z,24.53
2022-10-22T17:48:45.048Z,22.50
2022-10-22T17:51:13.108Z,24.43
2022-10-22T17:53:40.710Z,22.23
2022-10-22T17:56:10.267Z,25.67
2022-10-22T17:58:37.098Z,25.33
2022-10-22T18:01:04.187Z,28.17
2022-10-22T18:03:31.086Z,25.57
2022-10-22T18:06:05.022Z,22.77
2022-10-22T18:08:32.020Z,21.77
2022-10-22T18:11:00.070Z,26.03
2022-10-22T18:13:26.896Z,31.63
2022-10-22T18:15:54.246Z,30.10
2022-10-22T18:18:21.174Z,26.90
2022-10-22T18:20:53.912Z,23.27
2022-10-22T18:23:21.156Z,22.30
2022-10-22T18:25:48.953Z,21.37
2022-10-22T18:28:17.133Z,21.00
2022-10-22T18:30:44.383Z,21.43
2022-10-22T18:33:12.166Z,19.60
2022-10-22T18:35:38.998Z,20.27
2022-10-22T18:38:05.821Z,18.67
2022-10-22T18:40:32.881Z,20.97
2022-10-22T18:42:59.697Z,19.03
2022-10-22T18:45:26.827Z,19.17
2022-10-22T18:47:53.669Z,17.53
2022-10-22T18:50:20.513Z,17.30
2022-10-22T18:52:47.652Z,17.27
2022-10-22T18:55:14.473Z,14.77
2022-10-22T18:57:41.293Z,13.37
2022-10-22T19:00:08.523Z,13.13
2022-10-22T19:02:35.287Z,13.33
2022-10-22T19:05:02.162Z,13.50
2022-10-22T19:07:28.902Z,13.47
2022-10-22T19:09:55.735Z,13.93
2022-10-22T19:12:22.490Z,14.63
2022-10-22T19:14:49.838Z,16.30
2022-10-22T19:17:16.649Z,17.17
2022-10-22T19:19:44.186Z,15.47
2022-10-22T19:22:11.008Z,14.23
2022-10-22T19:24:37.877Z,15.63
2022-10-22T19:27:04.689Z,15.33
2022-10-22T19:29:31.553Z,14.33
2022-10-22T19:31:58.399Z,14.43
2022-10-22T19:34:25.348Z,15.27
2022-10-22T19:36:52.146Z,14.87
2022-10-22T19:39:19.659Z,15.67
2022-10-22T19:41:46.642Z,15.00
2022-10-22T19:44:13.618Z,16.17
2022-10-22T19:46:40.449Z,17.37
2022-10-22T19:49:07.273Z,17.33
2022-10-22T19:51:34.602Z,17.63
2022-10-22T19:54:02.871Z,19.13
2022-10-22T19:56:30.014Z,17.23
2022-10-22T19:58:56.811Z,16.90
2022-10-22T20:01:24.154Z,15.27
2022-10-22T20:03:50.985Z,16.03
2022-10-22T20:06:18.596Z,16.03
2022-10-22T20:08:45.810Z,15.27
2022-10-22T20:11:17.344Z,15.30
2022-10-22T20:13:46.583Z,16.23
2022-10-22T20:16:17.797Z,15.00
2022-10-22T20:18:44.559Z,13.67
2022-10-22T20:21:15.395Z,13.67
2022-10-22T20:23:42.850Z,14.00
2022-10-22T20:26:09.908Z,13.80
2022-10-22T20:28:37.768Z,13.77
2022-10-22T20:31:11.379Z,13.63
2022-10-22T20:33:38.616Z,13.03
2022-10-22T20:36:07.242Z,14.40
2022-10-22T20:38:34.407Z,15.10
2022-10-22T20:41:05.563Z,14.17
2022-10-22T20:43:33.866Z,14.73
2022-10-22T20:46:01.976Z,15.17
2022-10-22T20:48:31.435Z,15.67
2022-10-22T20:50:59.024Z,14.13
2022-10-22T20:53:26.552Z,14.90
2022-10-22T20:55:56.318Z,14.40
2022-10-22T20:58:25.941Z,15.20
2022-10-22T21:00:55.142Z,15.87
2022-10-22T21:03:22.407Z,18.27
2022-10-22T21:05:50.078Z,17.83
2022-10-22T21:08:18.238Z,17.13
2022-10-22T21:10:46.557Z,15.23
2022-10-22T21:13:14.280Z,15.27
2022-10-22T21:15:42.581Z,15.97
2022-10-22T21:18:09.610Z,16.73
2022-10-22T21:20:39.136Z,16.17
2022-10-22T21:23:07.085Z,15.87
2022-10-22T21:25:34.588Z,16.83
2022-10-22T21:28:01.871Z,14.77
2022-10-22T21:30:28.633Z,14.13
2022-10-22T21:32:57.243Z,14.07
2022-10-22T21:35:25.933Z,14.47
2022-10-22T21:37:52.969Z,15.90
2022-10-22T21:40:20.291Z,15.33
2022-10-22T21:42:47.040Z,14.57
2022-10-22T21:45:16.453Z,14.00
2022-10-22T21:47:45.509Z,15.07
2022-10-22T21:50:12.903Z,14.50
2022-10-22T21:52:39.791Z,14.67
2022-10-22T21:55:06.690Z,14.53
2022-10-22T21:57:33.702Z,13.77
2022-10-22T22:00:00.825Z,14.20
2022-10-22T22:02:29.378Z,13.97
2022-10-22T22:04:56.950Z,13.23
2022-10-22T22:07:24.102Z,14.20
2022-10-22T22:09:51.806Z,13.07
2022-10-22T22:12:21.190Z,12.37
2022-10-22T22:14:49.217Z,14.13
2022-10-22T22:17:16.811Z,12.83
2022-10-22T22:19:43.856Z,13.50
2022-10-22T22:22:10.940Z,13.77
2022-10-22T22:24:38.533Z,13.43
2022-10-22T22:27:05.839Z,15.80
2022-10-22T22:29:33.038Z,18.57
2022-10-22T22:32:00.399Z,17.43
2022-10-22T22:34:28.051Z,13.47
2022-10-22T22:36:55.021Z,13.07
2022-10-22T22:39:25.860Z,13.47
2022-10-22T22:41:52.701Z,13.97
2022-10-22T22:44:19.821Z,14.23
2022-10-22T22:46:46.560Z,12.93
2022-10-22T22:49:14.211Z,14.63
2022-10-22T22:51:41.006Z,17.07
2022-10-22T22:54:08.810Z,16.00
2022-10-22T22:56:36.842Z,13.30
2022-10-22T22:59:04.977Z,13.70
2022-10-22T23:01:36.505Z,12.87
2022-10-22T23:04:05.160Z,14.57
2022-10-22T23:06:33.217Z,14.90
2022-10-22T23:09:00.445Z,14.10
2022-10-22T23:11:27.706Z,17.83
2022-10-22T23:13:56.104Z,18.53
2022-10-22T23:16:24.709Z,17.83
2022-10-22T23:18:52.677Z,14.37
2022-10-22T23:21:21.561Z,17.30
2022-10-22T23:23:49.727Z,16.10
2022-10-22T23:26:21.362Z,20.13
2022-10-22T23:28:48.182Z,20.13
2022-10-22T23:31:16.107Z,16.57
2022-10-22T23:33:43.286Z,19.17
2022-10-22T23:36:10.835Z,15.70
2022-10-22T23:38:38.755Z,15.20
2022-10-22T23:41:06.141Z,16.33
2022-10-22T23:43:36.193Z,14.03
2022-10-22T23:46:03.918Z,13.97
2022-10-22T23:48:30.662Z,15.87
2022-10-22T23:50:57.520Z,18.20
2022-10-22T23:53:24.369Z,17.97
2022-10-22T23:55:51.162Z,14.27
2022-10-22T23:58:17.907Z,22.13
